Time;durP1;ratioP1;P1;durP2;ratioP2;P2;SDS_P1;SDS_P2;PMS_P1;PMS_P2;Temp;Humidity;BMP_temperature;BMP_pressure;BME280_temperature;BME280_humidity;BME280_pressure;Samples;Min_cycle;Max_cycle;Signal;HPM_P1;HPM_P2
2024/02/02 00:01:36;;;;;;;5.15;3.00;;;7.90;82.50;;;;;;5039053;28;20044;-63
2024/02/02 00:04:02;;;;;;;6.30;2.10;;;7.90;82.40;;;;;;5031556;28;20037;-63
2024/02/02 00:06:29;;;;;;;6.40;2.13;;;8.00;82.40;;;;;;5029744;28;20047;-63
2024/02/02 00:08:55;;;;;;;10.18;2.53;;;7.90;82.20;;;;;;5031064;28;20613;-63
2024/02/02 00:11:22;;;;;;;11.25;2.58;;;8.00;82.10;;;;;;5032400;28;20107;-62
2024/02/02 00:13:48;;;;;;;6.03;2.75;;;8.00;82.10;;;;;;5034323;28;20112;-62
2024/02/02 00:16:14;;;;;;;3.10;1.65;;;8.00;82.20;;;;;;5035999;28;20087;-62
2024/02/02 00:18:40;;;;;;;8.57;3.35;;;7.90;82.30;;;;;;5033961;28;20033;-62
2024/02/02 00:21:06;;;;;;;3.08;2.17;;;7.80;82.40;;;;;;5040970;28;20035;-62
2024/02/02 00:23:33;;;;;;;11.55;2.03;;;7.80;82.60;;;;;;5027640;28;20484;-62
2024/02/02 00:25:59;;;;;;;3.65;1.92;;;7.80;82.60;;;;;;5065937;28;20053;-61
2024/02/02 00:28:25;;;;;;;2.92;1.92;;;7.80;82.50;;;;;;5032522;28;20037;-62
2024/02/02 00:30:51;;;;;;;4.03;1.83;;;7.80;82.60;;;;;;5033420;28;20038;-62
2024/02/02 00:33:18;;;;;;;12.13;3.38;;;7.80;82.70;;;;;;5038847;28;20029;-62
2024/02/02 00:35:44;;;;;;;11.73;2.88;;;7.80;82.80;;;;;;5032155;28;20116;-62
2024/02/02 00:38:10;;;;;;;7.70;3.03;;;7.80;82.80;;;;;;5030012;28;20083;-62
2024/02/02 00:40:36;;;;;;;5.70;2.38;;;7.70;83.10;;;;;;5032536;28;20818;-62
2024/02/02 00:43:02;;;;;;;7.45;2.42;;;7.70;83.20;;;;;;5034783;28;20034;-62
2024/02/02 00:45:28;;;;;;;4.30;1.92;;;7.70;83.10;;;;;;5076307;28;20075;-62
2024/02/02 00:47:54;;;;;;;11.07;2.47;;;7.80;83.10;;;;;;5035286;28;20500;-62
2024/02/02 00:50:20;;;;;;;6.78;3.17;;;7.80;82.90;;;;;;5037689;28;20055;-62
2024/02/02 00:52:47;;;;;;;7.47;3.33;;;7.80;82.90;;;;;;5028954;28;20063;-62
2024/02/02 00:55:13;;;;;;;3.38;2.28;;;7.80;82.90;;;;;;5039187;28;20029;-62
2024/02/02 00:57:40;;;;;;;9.93;2.97;;;7.70;83.00;;;;;;5035433;28;20120;-63
2024/02/02 01:00:10;;;;;;;10.63;3.63;;;7.80;83.10;;;;;;5039365;28;20391;-63
2024/02/02 01:02:39;;;;;;;7.05;3.20;;;7.80;83.20;;;;;;5031011;28;20038;-63
2024/02/02 01:05:05;;;;;;;47.92;3.97;;;7.70;83.20;;;;;;5037307;28;20150;-63
2024/02/02 01:07:31;;;;;;;5.00;2.22;;;7.80;83.20;;;;;;5031686;28;20033;-63
2024/02/02 01:09:57;;;;;;;5.88;2.72;;;7.80;83.20;;;;;;5029953;28;20477;-64
2024/02/02 01:12:23;;;;;;;7.88;3.13;;;7.80;83.40;;;;;;5028483;28;20033;-64
2024/02/02 01:14:50;;;;;;;17.08;4.30;;;7.70;83.60;;;;;;5038211;28;20029;-64
2024/02/02 01:17:16;;;;;;;8.57;2.55;;;7.70;83.60;;;;;;5031669;28;20503;-64
2024/02/02 01:19:42;;;;;;;4.28;1.77;;;7.70;83.50;;;;;;5033124;28;20026;-64
2024/02/02 01:22:09;;;;;;;5.93;2.55;;;7.80;83.50;;;;;;5031499;28;20477;-64
2024/02/02 01:24:35;;;;;;;6.20;2.35;;;7.80;83.40;;;;;;5036035;28;20030;-64
2024/02/02 01:27:01;;;;;;;6.95;2.40;;;7.80;83.40;;;;;;5036513;28;20036;-64
2024/02/02 01:29:27;;;;;;;7.60;2.47;;;7.90;83.40;;;;;;5037119;28;20163;-63
2024/02/02 01:31:53;;;;;;;4.43;2.25;;;7.80;83.40;;;;;;5035773;28;20029;-63
2024/02/02 01:34:19;;;;;;;4.40;2.67;;;7.80;83.50;;;;;;5034365;28;20021;-63
2024/02/02 01:36:45;;;;;;;9.05;2.60;;;7.80;83.40;;;;;;5028283;28;20079;-63
2024/02/02 01:39:13;;;;;;;4.25;2.65;;;7.80;83.50;;;;;;5028713;28;20025;-63
2024/02/02 01:41:39;;;;;;;12.95;2.90;;;7.90;83.40;;;;;;5026648;28;20378;-63
2024/02/02 01:44:06;;;;;;;9.55;3.70;;;7.90;83.40;;;;;;5032038;28;20039;-63
2024/02/02 01:46:32;;;;;;;7.68;2.90;;;7.90;83.50;;;;;;5038574;28;20502;-63
2024/02/02 01:48:59;;;;;;;7.25;2.67;;;7.90;83.50;;;;;;5029628;28;20029;-63
2024/02/02 01:51:25;;;;;;;7.25;2.53;;;7.90;83.50;;;;;;5030130;28;20643;-63
2024/02/02 01:53:52;;;;;;;7.22;2.03;;;7.90;83.40;;;;;;5027620;28;20040;-63
2024/02/02 01:56:18;;;;;;;4.63;2.22;;;7.90;83.20;;;;;;5031053;28;20427;-63
2024/02/02 01:58:45;;;;;;;7.65;2.28;;;8.00;83.20;;;;;;5030406;28;20120;-63
2024/02/02 02:01:11;;;;;;;5.40;1.83;;;8.00;83.20;;;;;;5032782;28;20517;-63
2024/02/02 02:03:37;;;;;;;8.07;2.58;;;8.00;83.10;;;;;;5033462;28;20028;-63
2024/02/02 02:06:04;;;;;;;9.95;2.20;;;8.00;83.10;;;;;;5028674;28;20099;-63
2024/02/02 02:08:30;;;;;;;14.85;2.97;;;7.90;83.20;;;;;;5031317;28;20388;-63
2024/02/02 02:10:57;;;;;;;9.20;2.60;;;8.00;83.30;;;;;;5032747;28;20037;-63
2024/02/02 02:13:26;;;;;;;3.53;1.95;;;7.90;83.20;;;;;;5032816;28;20037;-63
2024/02/02 02:15:53;;;;;;;11.57;3.55;;;8.00;83.20;;;;;;5032576;28;20071;-63
2024/02/02 02:18:19;;;;;;;6.70;1.83;;;8.00;83.20;;;;;;5033086;28;20076;-64
2024/02/02 02:20:50;;;;;;;9.25;3.35;;;8.00;83.10;;;;;;5031172;28;20083;-63
2024/02/02 02:23:16;;;;;;;4.30;2.20;;;8.10;83.10;;;;;;5034123;28;20025;-64
2024/02/02 02:25:45;;;;;;;4.05;1.88;;;8.10;82.90;;;;;;5032288;28;20041;-64
2024/02/02 02:28:12;;;;;;;9.85;2.25;;;8.10;82.80;;;;;;5037333;28;20032;-64
2024/02/02 02:30:38;;;;;;;2.53;2.08;;;8.10;82.80;;;;;;5035307;28;20028;-63
2024/02/02 02:33:07;;;;;;;6.60;2.63;;;8.10;82.80;;;;;;5032453;28;20029;-63
2024/02/02 02:35:33;;;;;;;8.32;2.00;;;8.10;82.70;;;;;;5025050;28;20029;-63
2024/02/02 02:37:59;;;;;;;7.00;2.47;;;8.10;82.60;;;;;;5038993;28;20586;-64
2024/02/02 02:40:25;;;;;;;6.63;2.38;;;8.10;82.50;;;;;;5030035;28;20065;-64
2024/02/02 02:42:51;;;;;;;3.60;1.73;;;8.10;82.50;;;;;;5038314;28;20029;-64
2024/02/02 02:45:17;;;;;;;4.30;1.88;;;8.10;82.50;;;;;;5037873;28;20084;-64
2024/02/02 02:47:43;;;;;;;8.35;2.85;;;8.10;82.50;;;;;;5040438;28;20021;-63
2024/02/02 02:50:10;;;;;;;9.90;3.28;;;8.20;82.40;;;;;;5039177;28;20120;-63
2024/02/02 02:52:36;;;;;;;4.78;2.45;;;8.20;82.40;;;;;;5037880;28;20029;-64
2024/02/02 02:55:02;;;;;;;8.18;2.42;;;8.20;82.30;;;;;;5039702;28;20034;-64
2024/02/02 02:57:28;;;;;;;4.68;2.30;;;8.20;82.20;;;;;;5039274;28;20024;-64
2024/02/02 02:59:54;;;;;;;7.18;2.78;;;8.20;82.20;;;;;;5031789;28;20044;-64
2024/02/02 03:02:20;;;;;;;7.00;3.50;;;8.20;82.00;;;;;;5030771;28;20033;-64
2024/02/02 03:04:46;;;;;;;7.80;3.20;;;8.20;82.00;;;;;;5039344;28;20094;-64
2024/02/02 03:07:12;;;;;;;15.75;3.10;;;8.20;82.00;;;;;;5035154;28;20044;-64
2024/02/02 03:09:38;;;;;;;5.05;2.42;;;8.20;82.00;;;;;;5029782;28;20064;-64
2024/02/02 03:12:04;;;;;;;7.07;2.80;;;8.20;82.00;;;;;;5029854;28;20069;-64
2024/02/02 03:14:31;;;;;;;3.30;1.70;;;8.20;81.90;;;;;;5071923;28;20067;-64
2024/02/02 03:16:57;;;;;;;6.22;2.95;;;8.20;81.80;;;;;;5036637;28;20079;-64
2024/02/02 03:19:23;;;;;;;8.20;3.33;;;8.20;81.80;;;;;;5042754;28;20435;-63
2024/02/02 03:21:49;;;;;;;14.25;2.47;;;8.20;81.70;;;;;;5041427;28;20025;-64
2024/02/02 03:24:15;;;;;;;10.52;2.92;;;8.20;81.70;;;;;;5045691;28;20495;-64
2024/02/02 03:26:42;;;;;;;6.88;2.30;;;8.20;81.70;;;;;;5037339;28;20048;-64
2024/02/02 03:29:08;;;;;;;6.10;3.45;;;8.20;81.60;;;;;;5075289;28;20033;-64
2024/02/02 03:31:34;;;;;;;5.85;2.42;;;8.20;81.50;;;;;;5033767;28;20038;-64
2024/02/02 03:34:00;;;;;;;6.53;2.08;;;8.20;81.40;;;;;;5035254;28;20036;-63
2024/02/02 03:36:26;;;;;;;9.77;3.50;;;8.20;81.20;;;;;;5034980;28;20060;-63
2024/02/02 03:38:52;;;;;;;10.35;3.40;;;8.20;81.20;;;;;;5033761;28;20029;-63
2024/02/02 03:41:18;;;;;;;8.23;3.00;;;8.10;81.30;;;;;;5028614;28;20036;-63
2024/02/02 03:43:44;;;;;;;12.52;2.50;;;8.10;81.30;;;;;;5046608;28;20399;-63
2024/02/02 03:46:10;;;;;;;9.45;2.67;;;8.10;81.40;;;;;;5044172;28;20025;-63
2024/02/02 03:48:36;;;;;;;8.52;3.63;;;8.10;81.40;;;;;;5044854;28;20037;-63
2024/02/02 03:51:02;;;;;;;13.60;3.92;;;8.00;81.40;;;;;;5030030;28;20029;-63
2024/02/02 03:53:28;;;;;;;10.82;3.42;;;8.00;81.50;;;;;;5034746;28;20022;-63
2024/02/02 03:55:54;;;;;;;6.32;2.45;;;8.00;81.60;;;;;;5040115;28;20476;-62
2024/02/02 03:58:20;;;;;;;8.55;3.72;;;8.00;81.60;;;;;;5030663;28;20018;-62
2024/02/02 04:00:46;;;;;;;13.15;3.67;;;8.00;81.50;;;;;;5030520;28;20461;-62
2024/02/02 04:03:12;;;;;;;9.68;2.97;;;8.00;81.50;;;;;;5030336;28;20370;-62
2024/02/02 04:05:39;;;;;;;11.52;3.70;;;7.90;81.60;;;;;;5031703;28;20056;-61
2024/02/02 04:08:06;;;;;;;8.15;3.65;;;7.90;81.60;;;;;;5031491;28;20060;-64
2024/02/02 04:10:32;;;;;;;12.93;3.47;;;7.90;81.60;;;;;;5064004;28;20507;-63
2024/02/02 04:12:58;;;;;;;15.05;3.33;;;7.80;81.50;;;;;;5026317;28;20025;-63
2024/02/02 04:15:24;;;;;;;9.85;2.85;;;7.80;81.70;;;;;;5032276;28;20037;-63
2024/02/02 04:17:50;;;;;;;14.55;5.15;;;7.80;81.70;;;;;;5034238;28;20045;-62
2024/02/02 04:20:17;;;;;;;6.60;3.42;;;7.80;81.70;;;;;;5044596;28;20043;-63
2024/02/02 04:22:42;;;;;;;5.55;2.90;;;7.80;81.70;;;;;;5031193;28;20041;-64
2024/02/02 04:25:09;;;;;;;6.80;3.15;;;7.80;81.70;;;;;;5031121;28;20038;-63
2024/02/02 04:27:34;;;;;;;7.63;3.78;;;7.80;81.50;;;;;;5034602;28;20524;-62
2024/02/02 04:30:00;;;;;;;4.53;2.47;;;7.80;81.40;;;;;;5037164;28;20041;-62
2024/02/02 04:32:26;;;;;;;7.72;3.40;;;7.90;81.30;;;;;;5040792;28;20025;-62
2024/02/02 04:34:52;;;;;;;15.18;3.00;;;7.80;81.20;;;;;;5040374;28;20029;-62
2024/02/02 04:37:18;;;;;;;5.68;2.85;;;7.80;81.20;;;;;;5034566;28;20149;-62
2024/02/02 04:39:44;;;;;;;10.95;3.25;;;7.80;81.30;;;;;;5036607;28;20060;-62
2024/02/02 04:42:10;;;;;;;8.13;2.97;;;7.80;81.20;;;;;;5038867;28;20085;-63
2024/02/02 04:44:37;;;;;;;5.32;3.67;;;7.90;81.20;;;;;;5034337;28;20033;-63
2024/02/02 04:47:03;;;;;;;4.95;2.80;;;7.90;81.10;;;;;;5030621;28;20542;-63
2024/02/02 04:49:30;;;;;;;7.45;3.05;;;7.90;81.00;;;;;;5026452;28;20026;-63
2024/02/02 04:51:55;;;;;;;11.05;3.58;;;7.90;80.90;;;;;;5036360;28;20045;-63
2024/02/02 04:54:21;;;;;;;5.72;2.55;;;7.90;80.90;;;;;;5045790;28;20036;-63
2024/02/02 04:56:47;;;;;;;7.38;3.40;;;7.90;80.80;;;;;;5032367;28;20029;-62
2024/02/02 04:59:13;;;;;;;6.53;2.15;;;7.90;80.80;;;;;;5034368;28;20021;-63
2024/02/02 05:01:39;;;;;;;8.52;2.88;;;7.90;80.80;;;;;;5038062;28;20043;-62
2024/02/02 05:04:05;;;;;;;5.40;2.67;;;7.90;80.70;;;;;;5035352;28;20057;-63
2024/02/02 05:06:31;;;;;;;6.90;3.45;;;7.80;80.70;;;;;;5038464;28;20060;-63
2024/02/02 05:08:58;;;;;;;6.53;2.17;;;7.80;80.80;;;;;;5042161;28;20495;-62
2024/02/02 05:11:24;;;;;;;13.05;3.70;;;7.80;80.90;;;;;;5029935;28;20096;-62
2024/02/02 05:13:50;;;;;;;11.15;2.80;;;7.80;81.00;;;;;;5035031;28;20026;-64
2024/02/02 05:16:15;;;;;;;11.13;2.03;;;7.80;81.00;;;;;;5042062;28;20099;-64
2024/02/02 05:18:41;;;;;;;3.97;2.42;;;7.80;81.10;;;;;;5041154;28;20112;-63
2024/02/02 05:21:07;;;;;;;10.30;3.65;;;7.80;81.20;;;;;;5038832;28;20021;-64
2024/02/02 05:23:33;;;;;;;9.82;2.28;;;7.80;81.10;;;;;;5072231;28;20061;-64
2024/02/02 05:25:59;;;;;;;16.80;3.65;;;7.80;81.10;;;;;;5039096;28;20113;-64
2024/02/02 05:28:25;;;;;;;5.20;2.55;;;7.80;81.10;;;;;;5035490;28;20463;-63
2024/02/02 05:30:51;;;;;;;4.40;2.63;;;7.80;81.10;;;;;;5036319;28;20036;-64
2024/02/02 05:33:17;;;;;;;9.52;2.88;;;7.80;81.20;;;;;;5042828;28;20026;-64
2024/02/02 05:35:43;;;;;;;5.30;2.25;;;7.80;81.20;;;;;;5032280;28;20025;-64
2024/02/02 05:38:09;;;;;;;3.92;2.47;;;7.80;81.90;;;;;;5033514;28;20051;-64
2024/02/02 05:40:35;;;;;;;6.35;2.65;;;7.80;81.20;;;;;;5033855;28;20492;-62
2024/02/02 05:43:01;;;;;;;6.07;2.10;;;7.80;81.30;;;;;;5038815;28;20026;-62
2024/02/02 05:45:27;;;;;;;4.72;2.33;;;7.80;81.40;;;;;;5047693;28;20151;-63
2024/02/02 05:47:53;;;;;;;6.13;2.53;;;7.80;81.40;;;;;;5040052;28;20148;-63
2024/02/02 05:50:19;;;;;;;4.68;2.22;;;7.80;81.40;;;;;;5038295;28;20053;-64
2024/02/02 05:52:45;;;;;;;15.35;3.33;;;7.80;81.40;;;;;;5033777;28;20025;-64
2024/02/02 05:55:11;;;;;;;5.35;2.30;;;7.80;81.40;;;;;;5033580;28;20120;-64
2024/02/02 05:57:37;;;;;;;6.35;2.17;;;7.80;81.40;;;;;;5037880;28;20022;-64
2024/02/02 06:00:04;;;;;;;6.55;2.45;;;7.80;81.50;;;;;;5027907;28;20481;-64
2024/02/02 06:02:29;;;;;;;7.65;3.15;;;7.80;81.60;;;;;;5030161;28;20018;-64
2024/02/02 06:04:55;;;;;;;3.13;1.67;;;7.80;81.70;;;;;;5028382;28;20033;-64
2024/02/02 06:07:21;;;;;;;8.75;2.25;;;7.80;81.90;;;;;;5031280;28;20151;-64
2024/02/02 06:09:46;;;;;;;11.57;3.20;;;7.70;81.90;;;;;;5065203;28;20028;-63
2024/02/02 06:12:12;;;;;;;4.28;1.77;;;7.70;81.90;;;;;;5029085;28;20055;-62
2024/02/02 06:14:39;;;;;;;6.07;2.45;;;7.80;82.00;;;;;;5037528;28;20361;-63
2024/02/02 06:17:06;;;;;;;4.18;2.22;;;7.80;82.00;;;;;;5038234;28;20021;-62
2024/02/02 06:19:31;;;;;;;5.57;2.08;;;7.80;82.00;;;;;;5033337;28;20037;-63
2024/02/02 06:21:57;;;;;;;5.63;2.55;;;7.80;82.00;;;;;;5033399;28;20399;-62
2024/02/02 06:24:24;;;;;;;6.75;1.65;;;7.80;82.10;;;;;;5034610;28;20046;-64
2024/02/02 06:26:50;;;;;;;12.20;2.70;;;7.80;82.20;;;;;;5035050;28;20043;-63
2024/02/02 06:29:18;;;;;;;10.88;2.25;;;7.80;82.20;;;;;;5034170;28;20100;-64
2024/02/02 06:31:43;;;;;;;5.55;2.47;;;7.90;82.20;;;;;;5034953;28;20435;-63
2024/02/02 06:34:09;;;;;;;7.25;2.17;;;7.90;82.20;;;;;;5038107;28;20029;-64
2024/02/02 06:36:35;;;;;;;4.97;1.77;;;7.80;82.20;;;;;;5038020;28;20049;-63
2024/02/02 06:39:00;;;;;;;4.38;2.30;;;7.90;82.20;;;;;;5040810;28;20229;-63
2024/02/02 06:41:26;;;;;;;7.18;1.85;;;7.90;82.30;;;;;;5031760;28;20041;-63
2024/02/02 06:43:52;;;;;;;7.40;1.80;;;7.90;82.30;;;;;;5034250;28;20033;-62
2024/02/02 06:46:17;;;;;;;10.32;2.28;;;7.80;82.40;;;;;;5038084;28;20079;-62
2024/02/02 06:48:44;;;;;;;8.52;2.78;;;7.80;82.50;;;;;;5035098;28;20499;-62
2024/02/02 06:51:10;;;;;;;8.65;2.42;;;7.80;82.60;;;;;;5030132;28;20496;-62
2024/02/02 06:53:36;;;;;;;3.75;1.85;;;7.80;82.70;;;;;;5034045;28;20089;-63
2024/02/02 06:56:26;;;;;;;3.10;1.30;;;7.80;82.90;;;;;;5030896;28;20105;-63
2024/02/02 06:58:51;;;;;;;7.90;2.53;;;7.80;83.00;;;;;;5036355;28;20025;-63
2024/02/02 07:01:17;;;;;;;9.35;1.98;;;7.80;82.90;;;;;;5032582;28;20071;-63
2024/02/02 07:03:43;;;;;;;9.82;2.42;;;7.90;83.00;;;;;;5050052;28;20049;-63
2024/02/02 07:06:09;;;;;;;5.13;1.92;;;7.80;83.00;;;;;;5032542;28;20032;-62
2024/02/02 07:08:34;;;;;;;4.00;1.88;;;7.90;83.20;;;;;;5038071;28;20403;-63
2024/02/02 07:11:15;;;;;;;7.00;1.90;;;7.80;83.40;;;;;;5034686;28;20041;-63
2024/02/02 07:13:52;;;;;;;4.22;2.17;;;7.80;83.50;;;;;;5029065;28;20484;-63
2024/02/02 07:16:29;;;;;;;10.75;1.95;;;7.90;83.50;;;;;;5037192;28;20032;-62
2024/02/02 07:18:55;;;;;;;6.68;3.08;;;7.90;83.50;;;;;;5026391;28;20025;-63
2024/02/02 07:21:31;;;;;;;6.35;2.10;;;7.80;83.60;;;;;;5034747;28;20079;-63
2024/02/02 07:23:58;;;;;;;5.65;2.67;;;7.90;83.70;;;;;;5038297;28;20074;-64
2024/02/02 07:26:32;;;;;;;5.32;2.17;;;7.80;83.90;;;;;;5033619;28;20457;-63
2024/02/02 07:28:58;;;;;;;9.15;2.90;;;7.90;83.80;;;;;;5030026;28;20033;-64
2024/02/02 07:31:50;;;;;;;5.38;2.10;;;7.90;83.90;;;;;;5030755;28;20107;-64
2024/02/02 07:34:39;;;;;;;5.67;2.97;;;7.90;83.80;;;;;;5027203;28;20052;-64
2024/02/02 07:37:18;;;;;;;4.93;2.08;;;7.90;84.00;;;;;;5031336;28;20503;-63
2024/02/02 07:39:43;;;;;;;8.75;2.38;;;7.90;84.20;;;;;;5021631;28;20032;-63
2024/02/02 07:42:09;;;;;;;4.95;2.20;;;7.90;84.20;;;;;;5024820;28;20037;-63
2024/02/02 07:44:35;;;;;;;13.35;3.33;;;8.00;84.20;;;;;;5036841;28;20596;-63
2024/02/02 07:47:00;;;;;;;8.88;2.42;;;8.00;84.30;;;;;;5038929;28;20090;-63
2024/02/02 07:49:26;;;;;;;7.75;2.50;;;8.00;84.30;;;;;;5037347;28;20025;-63
2024/02/02 07:51:52;;;;;;;7.28;2.95;;;8.00;84.30;;;;;;5039842;28;20067;-64
2024/02/02 07:54:18;;;;;;;9.07;3.20;;;8.00;84.40;;;;;;5041071;28;20094;-64
2024/02/02 07:56:44;;;;;;;8.55;3.80;;;8.00;84.50;;;;;;5069104;28;20025;-63
2024/02/02 07:59:10;;;;;;;7.28;2.97;;;8.00;84.50;;;;;;5033886;28;20030;-63
2024/02/02 08:01:35;;;;;;;9.68;3.08;;;8.00;84.60;;;;;;5037630;28;20049;-63
2024/02/02 08:04:01;;;;;;;8.70;2.80;;;8.10;84.50;;;;;;5032687;28;20469;-63
2024/02/02 08:06:27;;;;;;;7.30;3.60;;;8.10;84.30;;;;;;5037458;28;20427;-63
2024/02/02 08:08:52;;;;;;;9.18;3.50;;;8.10;84.30;;;;;;5031214;28;20017;-64
2024/02/02 08:11:18;;;;;;;7.57;3.17;;;8.20;84.80;;;;;;5027532;28;20026;-63
2024/02/02 08:13:44;;;;;;;5.45;3.15;;;8.20;84.30;;;;;;5024560;28;20033;-63
2024/02/02 08:16:10;;;;;;;12.00;3.05;;;8.20;84.40;;;;;;5030279;28;20028;-62
2024/02/02 08:18:36;;;;;;;19.73;5.82;;;8.20;84.40;;;;;;5034663;28;20057;-63
2024/02/02 08:21:02;;;;;;;19.88;4.85;;;8.20;84.70;;;;;;5029988;28;20493;-63
2024/02/02 08:23:28;;;;;;;8.50;3.55;;;8.20;84.70;;;;;;5027594;28;20095;-64
2024/02/02 08:25:54;;;;;;;11.85;4.50;;;8.30;84.80;;;;;;5025804;28;20139;-64
2024/02/02 08:28:20;;;;;;;10.43;4.05;;;8.30;84.70;;;;;;5031652;28;20029;-63
2024/02/02 08:30:46;;;;;;;8.48;4.65;;;8.30;84.80;;;;;;5031106;28;20469;-63
2024/02/02 08:33:13;;;;;;;14.13;4.43;;;8.30;85.00;;;;;;5032880;28;20040;-63
2024/02/02 08:35:39;;;;;;;9.57;3.40;;;8.30;85.10;;;;;;5028958;28;20057;-63
2024/02/02 08:38:11;;;;;;;9.55;3.42;;;8.30;85.10;;;;;;5033481;28;20509;-64
2024/02/02 08:40:43;;;;;;;6.78;2.65;;;8.30;85.00;;;;;;5028497;28;20033;-63
2024/02/02 08:43:22;;;;;;;9.13;3.72;;;8.30;85.00;;;;;;5025267;28;20079;-63
2024/02/02 08:46:10;;;;;;;8.05;3.45;;;8.40;84.90;;;;;;5027535;28;20021;-64
2024/02/02 08:48:45;;;;;;;7.90;3.53;;;8.50;84.70;;;;;;5030918;28;20075;-64
2024/02/02 08:51:23;;;;;;;9.63;4.55;;;8.50;85.00;;;;;;5027628;28;20029;-62
2024/02/02 08:54:06;;;;;;;12.73;4.55;;;8.50;85.00;;;;;;5030236;28;20037;-63
2024/02/02 08:56:32;;;;;;;14.50;4.72;;;8.50;85.10;;;;;;5028325;28;20025;-63
2024/02/02 08:58:58;;;;;;;16.25;3.33;;;8.50;85.10;;;;;;5037311;28;20051;-64
2024/02/02 09:01:41;;;;;;;7.43;3.70;;;8.50;85.10;;;;;;5019743;28;20033;-63
2024/02/02 09:04:30;;;;;;;8.60;4.35;;;8.50;85.20;;;;;;5051041;28;20491;-63
2024/02/02 09:06:56;;;;;;;8.70;3.90;;;8.60;85.30;;;;;;5027500;28;20023;-63
2024/02/02 09:09:22;;;;;;;10.45;3.05;;;8.60;85.20;;;;;;5034198;28;20098;-63
2024/02/02 09:11:49;;;;;;;8.82;3.78;;;8.60;85.20;;;;;;5036690;28;20127;-63
2024/02/02 09:14:17;;;;;;;13.00;4.13;;;8.70;85.10;;;;;;5038019;28;20388;-64
2024/02/02 09:16:44;;;;;;;8.73;4.00;;;8.70;85.00;;;;;;5036380;28;20067;-65
2024/02/02 09:19:27;;;;;;;12.30;3.13;;;8.70;85.10;;;;;;5031390;28;20040;-64
2024/02/02 09:21:58;;;;;;;9.45;4.13;;;8.80;85.10;;;;;;5030629;28;20465;-64
2024/02/02 09:24:41;;;;;;;7.65;3.55;;;8.70;85.10;;;;;;5032169;28;20127;-62
2024/02/02 09:27:16;;;;;;;6.25;4.18;;;8.80;85.30;;;;;;5035654;28;20112;-61
2024/02/02 09:29:49;;;;;;;10.05;4.53;;;8.70;85.50;;;;;;5031260;28;20470;-64
2024/02/02 09:32:16;;;;;;;5.35;3.10;;;8.70;85.50;;;;;;5034530;28;20041;-64
2024/02/02 09:34:43;;;;;;;11.02;3.40;;;8.70;85.90;;;;;;5036528;28;20132;-64
2024/02/02 09:37:21;;;;;;;16.33;3.30;;;8.80;85.30;;;;;;5031643;28;20041;-63
2024/02/02 09:39:57;;;;;;;8.52;5.22;;;8.90;85.40;;;;;;5034941;28;20456;-64
2024/02/02 09:42:55;;;;;;;13.10;4.25;;;8.90;85.40;;;;;;5060028;28;20061;-63
2024/02/02 09:45:44;;;;;;;11.05;4.75;;;8.90;85.40;;;;;;5038617;28;20071;-63
2024/02/02 09:48:37;;;;;;;7.13;3.22;;;8.90;85.60;;;;;;5031449;28;20025;-63
2024/02/02 09:51:11;;;;;;;;;;;9.00;85.50;;;;;;5025663;28;20076;-63
2024/02/02 09:54:04;;;;;;;7.00;4.32;;;8.90;85.80;;;;;;5032692;28;19956;-63
2024/02/02 09:56:50;;;;;;;10.90;3.35;;;9.00;85.60;;;;;;5032698;28;20037;-63
2024/02/02 09:59:19;;;;;;;13.45;4.28;;;9.00;85.60;;;;;;5043489;28;20029;-63
2024/02/02 10:01:54;;;;;;;16.33;5.10;;;9.00;85.70;;;;;;5024939;28;20030;-63
2024/02/02 10:04:58;;;;;;;13.15;4.68;;;9.00;85.80;;;;;;5031483;28;20084;-63
2024/02/02 10:07:36;;;;;;;6.32;4.22;;;9.10;85.80;;;;;;5037386;28;20548;-63
2024/02/02 10:10:02;;;;;;;8.77;4.95;;;9.10;85.90;;;;;;5044555;28;20029;-63
2024/02/02 10:12:46;;;;;;;16.58;5.00;;;9.10;86.10;;;;;;5034184;28;20032;-62
2024/02/02 10:15:20;;;;;;;7.57;4.63;;;9.20;86.10;;;;;;5034151;28;20136;-63
2024/02/02 10:18:03;;;;;;;10.65;4.40;;;9.20;86.20;;;;;;5039845;28;20083;-63
2024/02/02 10:21:02;;;;;;;11.43;3.92;;;9.20;86.30;;;;;;5029447;28;20026;-62
2024/02/02 10:23:56;;;;;;;10.68;4.55;;;9.20;86.30;;;;;;5031173;28;20091;-64
2024/02/02 10:26:22;;;;;;;6.75;4.35;;;9.20;86.50;;;;;;5032090;28;20032;-64
2024/02/02 10:29:06;;;;;;;11.75;5.18;;;9.20;86.40;;;;;;5034305;28;20057;-63
2024/02/02 10:32:25;;;;;;;14.57;5.00;;;9.30;86.20;;;;;;5032598;28;20034;-63
2024/02/02 10:35:14;;;;;;;20.02;4.43;;;9.30;86.20;;;;;;5030425;28;20037;-63
2024/02/02 10:37:40;;;;;;;11.63;3.60;;;9.30;86.40;;;;;;5031707;28;20370;-63
2024/02/02 10:40:09;;;;;;;11.15;4.60;;;9.30;86.40;;;;;;5027159;28;20373;-63
2024/02/02 10:43:08;;;;;;;8.60;3.63;;;9.40;86.20;;;;;;5035877;28;20112;-63
2024/02/02 10:45:53;;;;;;;5.95;4.20;;;9.50;86.10;;;;;;5030046;28;20029;-64
2024/02/02 10:48:57;;;;;;;16.73;4.50;;;9.50;86.10;;;;;;5039621;28;20025;-64
2024/02/02 10:51:51;;;;;;;9.98;3.95;;;9.50;86.20;;;;;;5035607;28;20045;-62
2024/02/02 10:55:03;;;;;;;11.48;4.07;;;9.50;86.40;;;;;;5019774;28;20116;-63
2024/02/02 10:57:52;;;;;;;13.25;4.90;;;9.60;86.30;;;;;;5032124;28;20159;-63
2024/02/02 11:00:21;;;;;;;8.98;3.60;;;9.60;86.30;;;;;;5026627;28;20103;-63
2024/02/02 11:02:56;;;;;;;11.68;4.22;;;9.60;86.20;;;;;;5035032;28;20026;-63
2024/02/02 11:05:41;;;;;;;7.45;4.10;;;9.60;86.20;;;;;;5032760;28;20106;-64
2024/02/02 11:08:20;;;;;;;9.93;4.10;;;9.60;86.20;;;;;;5034101;28;20055;-64
2024/02/02 11:10:59;;;;;;;12.88;5.35;;;9.70;86.30;;;;;;5031640;28;20520;-64
2024/02/02 11:13:52;;;;;;;16.35;4.43;;;9.70;86.30;;;;;;5041393;28;20029;-64
2024/02/02 11:16:50;;;;;;;13.07;3.92;;;9.70;86.40;;;;;;5036657;28;20048;-64
2024/02/02 11:19:30;;;;;;;6.65;3.55;;;9.70;86.30;;;;;;5024352;28;20384;-64
2024/02/02 11:22:35;;;;;;;10.68;3.42;;;9.70;86.40;;;;;;5028499;28;20164;-64
2024/02/02 11:25:29;;;;;;;7.45;3.67;;;9.70;86.30;;;;;;5032335;28;20108;-64
2024/02/02 11:28:07;;;;;;;12.15;4.53;;;9.80;86.20;;;;;;5023790;28;20040;-64
2024/02/02 11:30:57;;;;;;;8.30;4.00;;;9.80;86.10;;;;;;5028373;28;20041;-63
2024/02/02 11:33:47;;;;;;;7.93;4.65;;;9.80;86.10;;;;;;5038553;28;20070;-63
2024/02/02 11:36:25;;;;;;;15.18;4.47;;;9.80;86.20;;;;;;5033800;28;20054;-63
2024/02/02 11:39:29;;;;;;;14.10;5.57;;;9.80;86.20;;;;;;5033387;28;20033;-63
2024/02/02 11:41:57;;;;;;;11.40;4.50;;;9.90;86.10;;;;;;5032298;28;20473;-63
2024/02/02 11:44:25;;;;;;;13.05;4.15;;;10.00;86.10;;;;;;5032973;28;20034;-63
2024/02/02 11:46:54;;;;;;;10.68;4.82;;;10.00;86.00;;;;;;5030192;28;20112;-63
2024/02/02 11:49:28;;;;;;;7.53;3.92;;;10.00;86.00;;;;;;5039119;28;20041;-64
2024/02/02 11:52:01;;;;;;;14.50;5.15;;;9.90;86.10;;;;;;5038093;28;20076;-64
2024/02/02 11:54:46;;;;;;;11.65;4.80;;;10.00;86.10;;;;;;5029816;28;20104;-64
2024/02/02 11:57:18;;;;;;;10.75;4.82;;;10.00;86.00;;;;;;5043431;28;20025;-64
2024/02/02 11:59:47;;;;;;;12.00;5.03;;;10.00;86.20;;;;;;5029049;28;20505;-64
2024/02/02 12:02:28;;;;;;;14.50;5.38;;;9.90;86.40;;;;;;5029382;28;20032;-64
2024/02/02 12:05:03;;;;;;;13.30;3.97;;;10.00;86.40;;;;;;5025970;28;20896;-64
2024/02/02 12:07:50;;;;;;;10.77;4.00;;;10.00;86.40;;;;;;5033879;28;20117;-64
2024/02/02 12:10:18;;;;;;;7.82;3.90;;;10.00;86.30;;;;;;5031858;28;20397;-64
2024/02/02 12:12:58;;;;;;;13.02;5.72;;;10.00;86.30;;;;;;5029666;28;20029;-64
2024/02/02 12:15:26;;;;;;;10.05;4.45;;;10.00;86.30;;;;;;5034001;28;20544;-63
2024/02/02 12:17:52;;;;;;;11.48;4.63;;;10.00;86.50;;;;;;5032600;28;20033;-63
2024/02/02 12:20:17;;;;;;;10.90;4.88;;;10.00;86.60;;;;;;5028469;28;20056;-63
2024/02/02 12:22:44;;;;;;;7.93;4.45;;;10.00;86.70;;;;;;5032867;28;20040;-63
2024/02/02 12:25:11;;;;;;;16.20;6.32;;;10.00;86.60;;;;;;5032225;28;20028;-63
2024/02/02 12:27:37;;;;;;;19.75;6.03;;;10.00;86.70;;;;;;5028937;28;20061;-63
2024/02/02 12:30:07;;;;;;;10.50;5.43;;;9.90;86.90;;;;;;5035169;28;20328;-64
2024/02/02 12:32:33;;;;;;;9.98;4.80;;;9.90;87.00;;;;;;5029884;28;20067;-64
2024/02/02 12:34:59;;;;;;;10.95;4.95;;;9.90;87.20;;;;;;5033244;28;20052;-64
2024/02/02 12:37:25;;;;;;;11.90;4.30;;;10.00;87.20;;;;;;5032807;28;20103;-64
2024/02/02 12:39:54;;;;;;;9.32;4.95;;;10.00;87.30;;;;;;5037496;28;20029;-64
2024/02/02 12:42:22;;;;;;;8.02;4.25;;;10.00;87.40;;;;;;5058182;28;20076;-64
2024/02/02 12:44:51;;;;;;;8.18;4.22;;;10.00;87.50;;;;;;5032557;28;20026;-64
2024/02/02 12:47:25;;;;;;;16.20;3.85;;;10.00;87.40;;;;;;5022804;28;20487;-63
2024/02/02 12:49:51;;;;;;;16.98;5.47;;;10.10;87.40;;;;;;5033809;28;20249;-63
2024/02/02 12:52:16;;;;;;;7.03;4.65;;;10.00;87.70;;;;;;5036295;28;20037;-63
2024/02/02 12:54:42;;;;;;;13.68;4.40;;;10.00;87.70;;;;;;5039273;28;20017;-63
2024/02/02 12:57:08;;;;;;;9.23;4.55;;;10.00;87.70;;;;;;5037040;28;20029;-63
2024/02/02 12:59:34;;;;;;;10.95;3.83;;;10.10;87.70;;;;;;5035340;28;20439;-63
2024/02/02 13:02:00;;;;;;;9.20;4.40;;;10.10;87.70;;;;;;5029536;28;20113;-63
2024/02/02 13:04:26;;;;;;;11.63;5.15;;;10.10;87.70;;;;;;5029095;28;20602;-63
2024/02/02 13:06:52;;;;;;;11.38;5.15;;;10.10;87.80;;;;;;5037785;28;20072;-64
2024/02/02 13:09:29;;;;;;;17.38;4.38;;;10.20;87.70;;;;;;5035013;28;20017;-64